Time;durP1;ratioP1;P1;durP2;ratioP2;P2;SDS_P1;SDS_P2;PMS_P1;PMS_P2;Temp;Humidity;BMP_temperature;BMP_pressure;BME280_temperature;BME280_humidity;BME280_pressure;Samples;Min_cycle;Max_cycle;Signal;HPM_P1;HPM_P2
2020/12/14 00:01:57;;;;;;;6.55;2.53;;;;;;;5.35;58.79;100381.84;8009442;28;20032;-62
2020/12/14 00:05:48;;;;;;;6.22;3.30;;;;;;;5.36;58.69;100377.44;8009898;28;20136;-63
2020/12/14 00:09:38;;;;;;;7.72;2.65;;;;;;;5.35;58.88;100391.41;8010947;28;20044;-62
2020/12/14 00:13:29;;;;;;;7.22;2.85;;;;;;;5.36;58.78;100380.06;8009211;28;20041;-62
2020/12/14 00:17:20;;;;;;;6.85;2.92;;;;;;;5.36;58.80;100377.44;8009954;28;20090;-62
2020/12/14 00:21:11;;;;;;;4.47;2.53;;;;;;;5.33;58.79;100377.63;7992989;28;20540;-62
2020/12/14 00:25:02;;;;;;;8.57;2.40;;;;;;;5.33;58.53;100375.84;8009888;28;20463;-62
2020/12/14 00:28:53;;;;;;;4.80;1.83;;;;;;;5.34;58.58;100379.31;8010013;28;20071;-63
2020/12/14 00:32:44;;;;;;;5.15;2.22;;;;;;;5.33;58.50;100364.59;8007972;28;20417;-63
2020/12/14 00:36:34;;;;;;;5.40;2.15;;;;;;;5.31;58.78;100359.47;8008101;28;20032;-63
2020/12/14 00:40:29;;;;;;;3.20;2.10;;;;;;;5.32;58.88;100366.34;8009812;28;20343;-63
2020/12/14 00:44:20;;;;;;;6.35;2.28;;;;;;;5.30;58.57;100349.13;8008284;28;20851;-63
2020/12/14 00:48:11;;;;;;;2.75;1.77;;;;;;;5.29;58.64;100345.69;7990443;28;20580;-63
2020/12/14 00:52:04;;;;;;;4.82;1.98;;;;;;;5.34;58.81;100350.66;7991762;28;20047;-63
2020/12/14 00:55:55;;;;;;;3.42;2.25;;;;;;;5.34;58.52;100348.06;8007825;28;20541;-63
2020/12/14 00:59:46;;;;;;;7.70;2.85;;;;;;;5.33;58.84;100349.81;8007517;28;20043;-63
2020/12/14 01:03:36;;;;;;;5.60;2.50;;;;;;;5.31;58.91;100351.66;8007122;28;20051;-62
2020/12/14 01:07:27;;;;;;;3.67;1.92;;;;;;;5.36;58.67;100351.41;8006951;28;20098;-62
2020/12/14 01:11:18;;;;;;;2.67;1.70;;;;;;;5.37;58.72;100369.56;7991160;28;20036;-63
2020/12/14 01:15:08;;;;;;;5.43;2.13;;;;;;;5.39;58.75;100359.94;7990757;28;20040;-63
2020/12/14 01:18:59;;;;;;;5.53;2.10;;;;;;;5.42;58.81;100361.50;7994186;28;20025;-62
2020/12/14 01:22:49;;;;;;;3.50;1.92;;;;;;;5.42;58.69;100345.88;8039401;28;20034;-62
2020/12/14 01:26:40;;;;;;;4.47;1.63;;;;;;;5.43;58.61;100342.38;8038648;28;20044;-63
2020/12/14 01:30:31;;;;;;;4.07;2.15;;;;;;;5.43;58.76;100337.16;8038222;28;20109;-62
2020/12/14 01:34:21;;;;;;;3.33;2.00;;;;;;;5.43;58.78;100331.94;8038739;28;20037;-62
2020/12/14 01:38:12;;;;;;;3.70;1.65;;;;;;;5.44;58.57;100331.84;8038516;28;20054;-63
2020/12/14 01:42:03;;;;;;;2.30;1.48;;;;;;;5.45;58.65;100332.69;8038775;28;20040;-63
2020/12/14 01:45:53;;;;;;;3.88;2.03;;;;;;;5.44;58.54;100341.41;8021452;28;20072;-63
2020/12/14 01:49:44;;;;;;;3.22;1.33;;;;;;;5.42;58.88;100345.88;8039640;28;20400;-63
2020/12/14 01:53:35;;;;;;;7.38;1.77;;;;;;;5.43;59.00;100340.59;8037802;28;20039;-63
2020/12/14 01:57:26;;;;;;;3.95;1.70;;;;;;;5.44;58.42;100342.25;8032884;28;20042;-64
2020/12/14 02:01:16;;;;;;;6.10;1.77;;;;;;;5.42;58.54;100344.13;8007243;28;20037;-63
2020/12/14 02:05:07;;;;;;;3.65;1.80;;;;;;;5.41;58.54;100337.22;7989546;28;20036;-64
2020/12/14 02:08:58;;;;;;;5.15;1.70;;;;;;;5.40;58.51;100338.13;8005160;28;20044;-63
2020/12/14 02:12:50;;;;;;;4.18;1.73;;;;;;;5.37;58.43;100335.72;8006280;28;20040;-64
2020/12/14 02:16:40;;;;;;;6.68;2.13;;;;;;;5.32;58.58;100321.22;8004569;28;20135;-65
2020/12/14 02:20:31;;;;;;;2.55;1.63;;;;;;;5.27;58.60;100313.66;8004858;28;20039;-65
2020/12/14 02:24:21;;;;;;;3.53;1.63;;;;;;;5.26;58.62;100309.41;8021230;28;20396;-64
2020/12/14 02:28:12;;;;;;;6.28;2.03;;;;;;;5.25;58.42;100305.09;8036937;28;20041;-64
2020/12/14 02:32:03;;;;;;;3.28;1.48;;;;;;;5.24;58.43;100310.38;8028829;28;20529;-64
2020/12/14 02:35:54;;;;;;;4.75;1.55;;;;;;;5.19;58.52;100308.84;8005958;28;20843;-64
2020/12/14 02:39:45;;;;;;;3.45;1.70;;;;;;;5.15;58.37;100303.88;8006825;28;20033;-64
2020/12/14 02:43:35;;;;;;;6.13;2.00;;;;;;;5.16;58.73;100305.59;8005774;28;20793;-64
2020/12/14 02:47:26;;;;;;;4.38;1.67;;;;;;;5.15;58.44;100309.09;8003503;28;20033;-64
2020/12/14 02:51:20;;;;;;;3.38;1.30;;;;;;;5.18;58.62;100308.97;8005129;28;20028;-65
2020/12/14 02:55:11;;;;;;;4.10;1.73;;;;;;;5.18;58.49;100306.34;8004577;28;20037;-64
2020/12/14 02:59:01;;;;;;;5.55;1.38;;;;;;;5.18;58.62;100303.75;8003486;28;20041;-64
2020/12/14 03:02:52;;;;;;;5.45;1.60;;;;;;;5.17;58.75;100294.25;8003387;28;20059;-63
2020/12/14 03:06:44;;;;;;;5.03;1.90;;;;;;;5.18;58.55;100291.56;8005488;28;20044;-65
2020/12/14 03:10:35;;;;;;;2.65;1.50;;;;;;;5.18;58.67;100294.19;8005258;28;20154;-64
2020/12/14 03:14:26;;;;;;;3.53;1.70;;;;;;;5.17;58.62;100289.88;8003495;28;20055;-64
2020/12/14 03:18:16;;;;;;;6.85;2.05;;;;;;;5.17;58.81;100291.66;8002662;28;20037;-63
2020/12/14 03:22:07;;;;;;;2.90;1.92;;;;;;;5.13;58.83;100279.69;8033841;28;20122;-64
2020/12/14 03:25:57;;;;;;;5.40;1.90;;;;;;;5.15;58.80;100283.91;8035832;28;20396;-64
2020/12/14 03:29:48;;;;;;;6.15;1.88;;;;;;;5.12;59.17;100272.78;8036638;28;20477;-64
2020/12/14 03:33:39;;;;;;;3.65;1.23;;;;;;;5.13;58.96;100277.06;8034204;28;20040;-64
2020/12/14 03:37:29;;;;;;;3.13;1.63;;;;;;;5.12;58.89;100275.38;8033428;28;20038;-64
2020/12/14 03:41:21;;;;;;;5.80;1.42;;;;;;;5.12;58.76;100280.59;8036499;28;20028;-63
2020/12/14 03:45:12;;;;;;;5.43;1.45;;;;;;;5.12;58.88;100291.00;8017962;28;20400;-63
2020/12/14 03:49:02;;;;;;;4.72;1.55;;;;;;;5.11;58.77;100290.16;8018304;28;20489;-64
2020/12/14 03:52:53;;;;;;;3.10;1.70;;;;;;;5.16;58.87;100297.78;8035238;28;20062;-64
2020/12/14 03:56:44;;;;;;;3.10;1.40;;;;;;;5.17;59.02;100300.31;8034896;28;20046;-64
2020/12/14 04:00:34;;;;;;;3.72;1.33;;;;;;;5.23;58.88;100303.50;8002869;28;20040;-64
2020/12/14 04:04:25;;;;;;;2.95;1.50;;;;;;;5.27;59.17;100299.81;7986502;28;20390;-63
2020/12/14 04:08:16;;;;;;;3.22;1.60;;;;;;;5.28;59.17;100302.31;8004049;28;20044;-63
2020/12/14 04:12:07;;;;;;;5.15;1.42;;;;;;;5.31;59.08;100285.72;8004520;28;20545;-64
2020/12/14 04:15:58;;;;;;;2.92;1.60;;;;;;;5.33;59.35;100287.31;8002659;28;20120;-64
2020/12/14 04:19:48;;;;;;;4.55;2.08;;;;;;;5.38;59.37;100300.09;8013742;28;20053;-63
2020/12/14 04:23:39;;;;;;;5.18;1.45;;;;;;;5.38;59.31;100287.91;8035347;28;20035;-64
2020/12/14 04:27:29;;;;;;;7.15;1.65;;;;;;;5.39;59.55;100296.56;8033975;28;20042;-64
2020/12/14 04:31:20;;;;;;;3.60;1.40;;;;;;;5.40;59.45;100291.25;8035573;28;20086;-63
2020/12/14 04:35:11;;;;;;;2.20;1.35;;;;;;;5.41;59.41;100287.72;8036156;28;20032;-63
2020/12/14 04:39:02;;;;;;;3.75;1.30;;;;;;;5.45;59.50;100286.66;8002808;28;20028;-64
2020/12/14 04:42:54;;;;;;;2.25;1.27;;;;;;;5.48;59.63;100283.03;8003360;28;20036;-63
2020/12/14 04:46:48;;;;;;;5.45;1.70;;;;;;;5.50;59.58;100279.44;8008089;28;20162;-63
2020/12/14 04:50:39;;;;;;;2.30;1.20;;;;;;;5.52;59.63;100281.94;8008312;28;20499;-64
2020/12/14 04:54:30;;;;;;;6.18;1.35;;;;;;;5.55;59.59;100284.41;8008135;28;20040;-63
2020/12/14 04:58:20;;;;;;;3.25;1.10;;;;;;;5.57;59.73;100282.53;8007506;28;20045;-63
2020/12/14 05:02:11;;;;;;;2.13;1.00;;;;;;;5.55;59.55;100266.16;8007758;28;20763;-63
2020/12/14 05:06:02;;;;;;;3.47;1.25;;;;;;;5.56;59.55;100279.06;8007480;28;20050;-64
2020/12/14 05:10:00;;;;;;;2.03;1.10;;;;;;;5.59;59.64;100275.47;7991724;28;20029;-63
2020/12/14 05:13:50;;;;;;;3.88;1.20;;;;;;;5.53;59.86;100255.81;7991683;28;20041;-63
2020/12/14 05:17:41;;;;;;;1.73;1.23;;;;;;;5.57;59.55;100264.28;8006315;28;20037;-63
2020/12/14 05:21:45;;;;;;;5.35;1.65;;;;;;;5.54;59.52;100267.06;8034008;28;20036;-63
2020/12/14 05:25:36;;;;;;;3.33;1.52;;;;;;;5.53;59.33;100278.41;8039379;28;20476;-63
2020/12/14 05:29:28;;;;;;;2.05;1.40;;;;;;;5.50;59.40;100279.44;8039279;28;20049;-63
2020/12/14 05:33:21;;;;;;;4.43;1.50;;;;;;;5.47;59.66;100279.59;8039977;28;20123;-63
2020/12/14 05:37:14;;;;;;;2.00;1.08;;;;;;;5.45;59.42;100278.81;8039115;28;20825;-63
2020/12/14 05:41:05;;;;;;;3.47;1.73;;;;;;;5.40;59.60;100277.38;8038917;28;20032;-63
2020/12/14 05:44:55;;;;;;;8.00;1.52;;;;;;;5.36;59.64;100273.25;8038166;28;20033;-63
2020/12/14 05:48:48;;;;;;;3.15;1.70;;;;;;;5.30;59.50;100269.25;8037509;28;20110;-63
2020/12/14 05:52:48;;;;;;;9.77;1.63;;;;;;;5.27;59.63;100266.78;8038400;28;20029;-63
2020/12/14 05:56:38;;;;;;;3.10;1.80;;;;;;;5.24;59.80;100269.56;8037201;28;20040;-63
2020/12/14 06:00:29;;;;;;;5.38;1.58;;;;;;;5.20;59.35;100278.47;7990618;28;20067;-64
2020/12/14 06:04:20;;;;;;;3.05;1.40;;;;;;;5.17;59.57;100276.03;8005865;28;20485;-63
2020/12/14 06:08:29;;;;;;;3.97;1.38;;;;;;;5.15;59.50;100270.03;7989133;28;20060;-63
2020/12/14 06:12:23;;;;;;;2.88;1.50;;;;;;;5.16;59.48;100269.13;8007415;28;20071;-63
2020/12/14 06:16:28;;;;;;;3.20;1.52;;;;;;;5.16;59.72;100266.53;8005343;28;20045;-63
2020/12/14 06:20:22;;;;;;;5.70;1.80;;;;;;;5.17;59.69;100269.06;8021002;28;20051;-63
2020/12/14 06:24:23;;;;;;;3.40;1.40;;;;;;;5.22;59.61;100271.41;8037459;28;20036;-63
2020/12/14 06:28:29;;;;;;;5.15;1.30;;;;;;;5.26;59.75;100274.69;8004010;28;20040;-63
2020/12/14 06:32:39;;;;;;;4.68;1.40;;;;;;;5.28;59.85;100275.44;8036598;28;20041;-63
2020/12/14 06:36:38;;;;;;;6.85;1.60;;;;;;;5.33;59.70;100273.44;8036296;28;20059;-63
2020/12/14 06:40:29;;;;;;;1.67;1.40;;;;;;;5.35;59.65;100262.03;8036382;28;20589;-64
2020/12/14 06:44:19;;;;;;;4.05;1.50;;;;;;;5.36;59.88;100279.31;8036833;28;20032;-63
2020/12/14 06:48:11;;;;;;;2.65;1.33;;;;;;;5.40;60.00;100274.78;8031663;28;20044;-63
2020/12/14 06:52:01;;;;;;;4.80;1.60;;;;;;;5.38;59.91;100277.50;8005351;28;20087;-64
2020/12/14 06:55:52;;;;;;;2.80;1.30;;;;;;;5.39;60.08;100284.38;8006060;28;20564;-63
2020/12/14 06:59:55;;;;;;;5.97;1.70;;;;;;;5.42;59.97;100289.44;8011694;28;20041;-63
2020/12/14 07:03:46;;;;;;;3.40;1.33;;;;;;;5.42;60.16;100284.22;8005260;28;20060;-64
2020/12/14 07:07:36;;;;;;;6.05;2.05;;;;;;;5.47;60.21;100291.78;8003296;28;20636;-64
2020/12/14 07:11:27;;;;;;;2.78;1.30;;;;;;;5.49;60.06;100290.75;8004212;28;20040;-64
2020/12/14 07:15:29;;;;;;;8.32;1.60;;;;;;;5.50;60.19;100291.59;7986789;28;20029;-64
2020/12/14 07:19:20;;;;;;;4.13;1.40;;;;;;;5.47;60.10;100291.78;8003944;28;20040;-64
2020/12/14 07:23:14;;;;;;;3.15;1.23;;;;;;;5.47;60.18;100289.19;8003564;28;20036;-63
2020/12/14 07:27:08;;;;;;;3.53;1.38;;;;;;;5.47;60.22;100303.03;7986381;28;20021;-64
2020/12/14 07:31:11;;;;;;;1.85;1.30;;;;;;;5.45;60.31;100291.00;8003097;28;20037;-63
2020/12/14 07:35:06;;;;;;;6.03;1.80;;;;;;;5.40;60.22;100285.19;8004899;28;20047;-64
2020/12/14 07:38:57;;;;;;;2.13;1.38;;;;;;;5.41;60.46;100300.75;8004496;28;20047;-63
2020/12/14 07:42:48;;;;;;;3.45;1.63;;;;;;;5.41;60.49;100308.56;8003394;28;20047;-63
2020/12/14 07:46:40;;;;;;;2.88;1.75;;;;;;;5.44;60.52;100316.22;7985653;28;20055;-63
2020/12/14 07:50:31;;;;;;;6.88;3.03;;;;;;;5.46;60.65;100326.56;8003312;28;20036;-64
2020/12/14 07:54:21;;;;;;;2.78;1.48;;;;;;;5.46;60.62;100330.00;8004384;28;20583;-64
2020/12/14 07:58:12;;;;;;;3.00;1.50;;;;;;;5.47;60.98;100323.88;8002128;28;20033;-63
2020/12/14 08:02:08;;;;;;;3.58;1.90;;;;;;;5.47;60.82;100323.88;8003053;28;20521;-64
2020/12/14 08:06:10;;;;;;;2.17;1.42;;;;;;;5.47;60.78;100321.28;7998840;28;20580;-64
2020/12/14 08:10:01;;;;;;;2.95;1.95;;;;;;;5.48;60.75;100322.09;8002005;28;20032;-63
2020/12/14 08:13:52;;;;;;;3.83;1.77;;;;;;;5.46;60.93;100317.00;8002490;28;20148;-63
2020/12/14 08:17:43;;;;;;;4.45;1.63;;;;;;;5.48;60.85;100320.34;8002341;28;20032;-62
2020/12/14 08:21:38;;;;;;;2.30;1.40;;;;;;;5.48;61.10;100348.16;8035205;28;20041;-63
2020/12/14 08:25:31;;;;;;;4.78;1.60;;;;;;;5.53;61.08;100360.03;8042517;28;20548;-63
2020/12/14 08:29:21;;;;;;;4.95;2.17;;;;;;;5.56;61.30;100362.44;8040532;28;20064;-63
2020/12/14 08:33:14;;;;;;;4.13;1.50;;;;;;;5.60;61.34;100350.13;8017240;28;20040;-64
2020/12/14 08:37:05;;;;;;;5.57;1.70;;;;;;;5.65;61.20;100355.91;8033755;28;20615;-64
2020/12/14 08:41:03;;;;;;;5.00;2.10;;;;;;;5.68;61.32;100362.75;8025370;28;20029;-64
2020/12/14 08:45:05;;;;;;;3.17;1.55;;;;;;;5.69;61.10;100353.97;8007492;28;20068;-63
2020/12/14 08:48:57;;;;;;;2.38;1.67;;;;;;;5.73;61.34;100358.09;8007574;28;20051;-63
2020/12/14 08:52:58;;;;;;;3.92;2.45;;;;;;;5.75;61.48;100354.50;8008206;28;20052;-63
2020/12/14 08:56:49;;;;;;;4.10;1.73;;;;;;;5.77;61.20;100359.63;7991926;28;20108;-64
2020/12/14 09:00:39;;;;;;;2.53;1.63;;;;;;;5.77;61.34;100359.63;8007174;28;20041;-64
2020/12/14 09:04:32;;;;;;;5.80;2.00;;;;;;;5.81;61.68;100363.78;8022416;28;20043;-64
2020/12/14 09:08:23;;;;;;;8.20;2.65;;;;;;;5.84;61.53;100377.47;8036057;28;20087;-63
2020/12/14 09:12:13;;;;;;;4.82;2.00;;;;;;;5.88;61.44;100379.00;8008901;28;20059;-63
2020/12/14 09:16:04;;;;;;;4.18;2.03;;;;;;;5.90;61.67;100379.72;7991251;28;20637;-63
2020/12/14 09:19:54;;;;;;;2.95;1.92;;;;;;;5.92;61.52;100390.09;7997020;28;20055;-63
2020/12/14 09:24:11;;;;;;;4.25;2.28;;;;;;;5.94;61.63;100380.41;7997198;28;20657;-63
2020/12/14 09:28:02;;;;;;;2.67;1.77;;;;;;;5.96;61.58;100383.78;7996954;28;20039;-63
2020/12/14 09:31:54;;;;;;;3.45;1.90;;;;;;;6.01;61.79;100374.78;7995717;28;20033;-64
2020/12/14 09:35:45;;;;;;;3.92;1.83;;;;;;;6.04;61.92;100381.59;7997096;28;20033;-63
2020/12/14 09:39:36;;;;;;;2.90;2.00;;;;;;;6.06;61.83;100385.78;7996134;28;20047;-63
2020/12/14 09:43:26;;;;;;;5.78;1.80;;;;;;;6.07;61.87;100399.66;7997225;28;20040;-63
2020/12/14 09:47:19;;;;;;;5.13;2.10;;;;;;;6.06;61.68;100395.38;7993264;28;20103;-63
2020/12/14 09:51:10;;;;;;;4.93;1.85;;;;;;;6.09;62.05;100403.91;7997768;28;20701;-63
2020/12/14 09:55:00;;;;;;;4.80;1.70;;;;;;;6.10;62.16;100409.94;7994622;28;20037;-63
2020/12/14 09:58:51;;;;;;;3.42;2.10;;;;;;;6.13;61.78;100409.78;7999308;28;20032;-63
2020/12/14 10:02:41;;;;;;;2.92;1.60;;;;;;;6.14;61.89;100408.84;7999160;28;20067;-63
2020/12/14 10:06:32;;;;;;;6.55;1.80;;;;;;;6.15;61.85;100413.13;7994465;28;20045;-63
2020/12/14 10:10:23;;;;;;;4.68;2.10;;;;;;;6.14;62.13;100414.03;7997910;28;20041;-64
2020/12/14 10:14:13;;;;;;;5.32;1.77;;;;;;;6.16;62.14;100420.03;7994806;28;20147;-63
2020/12/14 10:18:04;;;;;;;3.67;1.77;;;;;;;6.18;62.18;100419.97;7978355;28;20043;-64
2020/12/14 10:21:55;;;;;;;5.25;1.83;;;;;;;6.19;61.97;100419.84;7996880;28;20352;-63
2020/12/14 10:25:45;;;;;;;4.50;2.70;;;;;;;6.21;62.04;100419.78;7982074;28;20309;-63
2020/12/14 10:29:37;;;;;;;4.55;1.85;;;;;;;6.19;62.28;100409.44;7996282;28;20050;-63
2020/12/14 10:33:30;;;;;;;2.65;1.77;;;;;;;6.20;62.26;100412.88;7997727;28;20496;-63
2020/12/14 10:37:20;;;;;;;3.38;1.50;;;;;;;6.20;62.25;100405.06;7997441;28;20039;-64
2020/12/14 10:41:15;;;;;;;4.03;2.10;;;;;;;6.18;62.32;100402.53;7995498;28;20567;-63
2020/12/14 10:45:05;;;;;;;4.03;2.05;;;;;;;6.21;62.46;100398.91;7993183;28;20131;-63
2020/12/14 10:48:56;;;;;;;5.72;1.60;;;;;;;6.22;62.50;100401.47;7994371;28;20726;-64
2020/12/14 10:52:47;;;;;;;3.22;1.95;;;;;;;6.25;62.28;100401.28;7993809;28;20039;-63
2020/12/14 10:56:37;;;;;;;6.00;2.00;;;;;;;6.28;62.34;100393.28;7997437;28;20041;-63
2020/12/14 11:00:28;;;;;;;3.42;1.88;;;;;;;6.29;62.89;100381.06;7976037;28;20059;-63
2020/12/14 11:04:19;;;;;;;4.60;1.83;;;;;;;6.33;62.56;100380.81;7992458;28;20084;-64
2020/12/14 11:08:10;;;;;;;2.45;1.70;;;;;;;6.37;62.77;100377.13;7976053;28;20098;-63
2020/12/14 11:12:04;;;;;;;4.10;2.00;;;;;;;6.41;62.68;100373.41;7994622;28;20702;-63
2020/12/14 11:15:55;;;;;;;4.13;2.15;;;;;;;6.46;62.82;100368.78;7990420;28;20502;-63
2020/12/14 11:19:52;;;;;;;2.97;1.83;;;;;;;6.49;62.86;100357.31;7991597;28;20045;-64
2020/12/14 11:24:04;;;;;;;3.92;1.45;;;;;;;6.52;62.96;100357.97;7977847;28;20652;-63
2020/12/14 11:27:55;;;;;;;5.95;1.67;;;;;;;6.57;62.74;100353.34;7994638;28;20045;-62
2020/12/14 11:31:46;;;;;;;3.22;1.85;;;;;;;6.61;62.87;100354.00;7994969;28;20049;-65
2020/12/14 11:35:36;;;;;;;4.40;1.75;;;;;;;6.68;62.78;100357.09;7975104;28;20076;-64
2020/12/14 11:39:27;;;;;;;4.75;2.05;;;;;;;6.72;63.10;100353.41;7994117;28;20386;-61
2020/12/14 11:43:18;;;;;;;3.15;1.73;;;;;;;6.77;63.16;100348.75;7977329;28;20602;-62
2020/12/14 11:47:08;;;;;;;2.88;1.80;;;;;;;6.81;62.92;100348.47;7990402;28;20053;-64
2020/12/14 11:50:59;;;;;;;5.97;1.70;;;;;;;6.87;63.12;100344.69;7991805;28;20449;-64
2020/12/14 11:54:49;;;;;;;4.63;1.95;;;;;;;6.91;62.80;100338.34;7975590;28;20045;-63
2020/12/14 11:58:40;;;;;;;4.47;1.52;;;;;;;6.94;63.09;100322.50;7993159;28;20037;-63
2020/12/14 12:02:31;;;;;;;4.70;1.95;;;;;;;6.99;63.02;100315.22;7994632;28;20037;-64
2020/12/14 12:06:28;;;;;;;5.90;1.80;;;;;;;7.05;62.91;100327.91;7990875;28;20073;-61
2020/12/14 12:10:20;;;;;;;2.42;1.60;;;;;;;7.06;62.76;100326.97;7991092;28;20389;-65
2020/12/14 12:14:11;;;;;;;3.15;1.70;;;;;;;7.07;63.09;100328.66;7991028;28;20045;-63
2020/12/14 12:18:02;;;;;;;7.57;1.83;;;;;;;7.07;63.10;100320.84;7994121;28;20831;-64
2020/12/14 12:21:52;;;;;;;2.97;1.60;;;;;;;7.07;62.76;100314.75;7995344;28;20083;-64
2020/12/14 12:25:43;;;;;;;3.17;1.70;;;;;;;7.07;62.87;100318.22;7997059;28;20033;-64
2020/12/14 12:29:34;;;;;;;4.75;1.85;;;;;;;7.06;63.07;100320.91;7993599;28;20110;-64
2020/12/14 12:33:24;;;;;;;3.42;1.73;;;;;;;7.07;62.57;100318.22;7995045;28;20561;-64
2020/12/14 12:37:15;;;;;;;3.95;1.70;;;;;;;7.08;62.89;100319.06;7992219;28;20045;-64
2020/12/14 12:41:06;;;;;;;4.75;1.90;;;;;;;7.08;62.78;100313.84;7974688;28;20040;-64
2020/12/14 12:44:56;;;;;;;2.53;1.60;;;;;;;7.08;62.50;100311.22;7989406;28;20481;-64
2020/12/14 12:48:47;;;;;;;4.00;1.70;;;;;;;7.12;63.18;100304.88;7989880;28;20564;-63
2020/12/14 12:52:38;;;;;;;3.45;1.50;;;;;;;7.13;63.16;100302.19;7991656;28;20033;-64
2020/12/14 12:56:29;;;;;;;4.45;1.90;;;;;;;7.14;63.02;100293.41;7990453;28;20043;-63
2020/12/14 13:00:20;;;;;;;3.85;2.03;;;;;;;7.16;62.94;100304.59;7974149;28;20623;-64
2020/12/14 13:04:10;;;;;;;3.30;1.65;;;;;;;7.15;62.83;100299.47;7992822;28;20051;-64
2020/12/14 13:08:01;;;;;;;3.08;1.60;;;;;;;7.15;62.82;100302.06;7979309;28;20041;-64
2020/12/14 13:11:53;;;;;;;2.15;1.63;;;;;;;7.15;62.49;100304.69;8000637;28;20040;-64
2020/12/14 13:15:47;;;;;;;3.78;1.75;;;;;;;7.16;62.92;100293.31;7995022;28;20518;-63
2020/12/14 13:19:38;;;;;;;3.20;1.60;;;;;;;7.16;62.53;100298.53;7995455;28;20037;-63
2020/12/14 13:23:28;;;;;;;3.50;1.90;;;;;;;7.15;62.78;100295.09;7996950;28;20045;-63
2020/12/14 13:27:19;;;;;;;4.00;1.90;;;;;;;7.20;62.65;100302.66;7996159;28;20040;-63
2020/12/14 13:31:10;;;;;;;6.05;1.80;;;;;;;7.23;62.65;100308.53;7996470;28;20040;-63
2020/12/14 13:35:01;;;;;;;3.30;1.85;;;;;;;7.28;62.58;100310.84;7994500;28;20028;-63
2020/12/14 13:38:51;;;;;;;4.78;1.90;;;;;;;7.33;62.30;100304.44;7994734;28;20033;-63
2020/12/14 13:42:42;;;;;;;4.03;1.83;;;;;;;7.35;62.39;100296.47;7979741;28;20040;-64
2020/12/14 13:46:33;;;;;;;3.05;1.70;;;;;;;7.42;62.64;100303.84;7992228;28;20044;-63
2020/12/14 13:50:23;;;;;;;3.67;1.60;;;;;;;7.46;62.53;100296.66;7979387;28;20035;-63
2020/12/14 13:54:14;;;;;;;4.07;1.50;;;;;;;7.48;62.41;100307.84;7997308;28;20044;-64
2020/12/14 13:58:05;;;;;;;3.42;1.50;;;;;;;7.49;62.37;100304.31;7996015;28;20266;-64
2020/12/14 14:01:56;;;;;;;3.60;1.60;;;;;;;7.52;62.12;100300.66;7998298;28;20045;-64
2020/12/14 14:05:47;;;;;;;3.58;1.88;;;;;;;7.53;62.66;100297.13;7999735;28;20049;-63
2020/12/14 14:09:37;;;;;;;3.58;1.67;;;;;;;7.58;62.54;100306.34;7997209;28;20041;-63
2020/12/14 14:13:28;;;;;;;4.97;1.70;;;;;;;7.59;62.45;100305.41;7994896;28;20029;-63
2020/12/14 14:17:18;;;;;;;3.08;1.60;;;;;;;7.61;62.26;100305.31;7959890;28;20033;-64
2020/12/14 14:21:09;;;;;;;4.20;1.80;;;;;;;7.64;62.48;100297.28;7979592;28;20110;-64
2020/12/14 14:25:00;;;;;;;5.80;2.00;;;;;;;7.66;62.17;100306.72;7995005;28;20098;-64
2020/12/14 14:28:51;;;;;;;4.63;2.35;;;;;;;7.65;62.12;100301.56;7995513;28;20117;-63
2020/12/14 14:32:42;;;;;;;6.13;1.67;;;;;;;7.66;62.13;100292.81;7993602;28;20528;-64
2020/12/14 14:36:33;;;;;;;2.35;1.63;;;;;;;7.67;62.00;100303.16;7997957;28;20116;-63
2020/12/14 14:40:23;;;;;;;4.70;1.60;;;;;;;7.69;62.11;100303.06;7998061;28;20665;-64
2020/12/14 14:44:14;;;;;;;3.90;1.70;;;;;;;7.69;61.85;100290.81;7994523;28;20554;-63
2020/12/14 14:48:05;;;;;;;3.88;1.90;;;;;;;7.69;62.14;100289.97;7991712;28;20183;-64
2020/12/14 14:51:55;;;;;;;5.25;1.95;;;;;;;7.72;62.34;100290.63;7994641;28;20698;-64
2020/12/14 14:55:50;;;;;;;2.90;1.40;;;;;;;7.73;61.97;100302.78;7978043;28;20094;-63
2020/12/14 14:59:40;;;;;;;3.35;1.52;;;;;;;7.74;61.96;100301.00;7996223;28;20071;-63
2020/12/14 15:03:31;;;;;;;5.25;1.58;;;;;;;7.72;61.65;100301.09;7997293;28;20045;-64
2020/12/14 15:07:22;;;;;;;5.20;1.48;;;;;;;7.74;62.32;100304.47;7996080;28;20719;-64
2020/12/14 15:11:12;;;;;;;3.83;1.70;;;;;;;7.74;61.81;100312.31;7993317;28;20043;-63
2020/12/14 15:15:03;;;;;;;4.43;1.58;;;;;;;7.75;61.67;100298.31;7974565;28;20134;-64
2020/12/14 15:18:54;;;;;;;1.92;1.50;;;;;;;7.76;61.62;100302.56;7993328;28;20111;-64
2020/12/14 15:22:45;;;;;;;2.65;1.42;;;;;;;7.75;61.82;100307.91;7993875;28;20397;-64
2020/12/14 15:26:36;;;;;;;3.30;1.63;;;;;;;7.74;61.90;100306.22;7992951;28;20048;-63
2020/12/14 15:30:28;;;;;;;6.72;1.85;;;;;;;7.68;61.97;100315.28;7992178;28;20803;-64
2020/12/14 15:34:18;;;;;;;3.65;1.65;;;;;;;7.66;61.49;100309.34;7994021;28;20032;-64
2020/12/14 15:38:09;;;;;;;2.65;1.30;;;;;;;7.65;61.33;100322.50;7992491;28;20059;-64
2020/12/14 15:42:00;;;;;;;4.20;1.42;;;;;;;7.63;61.58;100322.56;7993780;28;20040;-64
2020/12/14 15:45:50;;;;;;;4.57;1.67;;;;;;;7.60;61.82;100321.94;7973125;28;20045;-64
2020/12/14 15:49:42;;;;;;;3.97;1.55;;;;;;;7.58;61.39;100316.81;7992631;28;20044;-65
2020/12/14 15:53:32;;;;;;;3.55;1.67;;;;;;;7.58;61.34;100329.88;7995486;28;20110;-65
2020/12/14 15:57:23;;;;;;;2.70;1.55;;;;;;;7.54;61.48;100325.78;7995518;28;20035;-65
2020/12/14 16:01:18;;;;;;;3.95;1.67;;;;;;;7.52;61.39;100329.41;7979191;28;20045;-65
2020/12/14 16:05:11;;;;;;;3.20;1.60;;;;;;;7.49;61.71;100336.50;7995101;28;20033;-65
2020/12/14 16:09:02;;;;;;;3.55;2.08;;;;;;;7.46;61.29;100325.41;7993803;28;20041;-64
2020/12/14 16:12:53;;;;;;;4.78;1.90;;;;;;;7.45;61.43;100327.19;7992779;28;20048;-65
2020/12/14 16:16:43;;;;;;;4.15;1.90;;;;;;;7.46;61.18;100343.72;7989026;28;20831;-64
2020/12/14 16:20:37;;;;;;;10.15;2.13;;;;;;;7.46;61.48;100339.28;7993413;28;20041;-64
2020/12/14 16:24:27;;;;;;;3.35;1.73;;;;;;;7.45;61.47;100329.81;7976230;28;20158;-64
2020/12/14 16:28:18;;;;;;;6.00;1.77;;;;;;;7.47;61.25;100332.31;7990628;28;20033;-64
2020/12/14 16:32:09;;;;;;;3.30;1.75;;;;;;;7.48;61.71;100339.22;7991904;28;20548;-63
2020/12/14 16:35:59;;;;;;;3.55;1.60;;;;;;;7.50;61.58;100329.53;7995183;28;20044;-63
2020/12/14 16:39:50;;;;;;;6.38;2.60;;;;;;;7.52;61.37;100340.69;7996886;28;20037;-63
2020/12/14 16:43:41;;;;;;;3.10;1.67;;;;;;;7.53;61.71;100344.16;8002096;28;20043;-64
2020/12/14 16:47:31;;;;;;;2.25;1.60;;;;;;;7.55;61.61;100337.88;7978037;28;20041;-64
2020/12/14 16:51:23;;;;;;;5.25;2.38;;;;;;;7.54;61.83;100344.06;7999483;28;20063;-64
2020/12/14 16:55:16;;;;;;;2.85;1.95;;;;;;;7.54;61.38;100336.22;7997207;28;20150;-63
2020/12/14 16:59:06;;;;;;;4.20;2.05;;;;;;;7.57;61.36;100346.50;7998439;28;20386;-64
2020/12/14 17:02:58;;;;;;;6.22;2.92;;;;;;;7.57;61.28;100343.88;7996834;28;20033;-64
2020/12/14 17:06:55;;;;;;;2.95;1.85;;;;;;;7.58;61.24;100357.78;8000405;28;20037;-64
2020/12/14 17:10:45;;;;;;;5.47;2.13;;;;;;;7.58;61.24;100357.78;7998285;28;20777;-64
2020/12/14 17:14:36;;;;;;;3.35;2.10;;;;;;;7.58;61.35;100356.03;7996718;28;20478;-64
2020/12/14 17:18:27;;;;;;;4.07;2.00;;;;;;;7.60;61.61;100348.91;7962927;28;20048;-64
2020/12/14 17:22:20;;;;;;;3.45;1.98;;;;;;;7.62;61.42;100349.66;7998035;28;20049;-64
2020/12/14 17:26:10;;;;;;;5.53;2.47;;;;;;;7.64;61.00;100345.16;7999147;28;20028;-64
2020/12/14 17:30:01;;;;;;;3.70;1.92;;;;;;;7.65;61.59;100343.41;7981344;28;20047;-66
2020/12/14 17:33:56;;;;;;;3.90;1.65;;;;;;;7.66;61.57;100350.31;7996417;28;20041;-68
2020/12/14 17:37:47;;;;;;;5.18;2.38;;;;;;;7.69;61.20;100350.97;7968974;28;20080;-68
2020/12/14 17:41:38;;;;;;;3.30;2.40;;;;;;;7.68;61.41;100354.50;7984340;28;20402;-67
2020/12/14 17:45:28;;;;;;;6.18;2.33;;;;;;;7.70;61.50;100362.25;7993828;28;20091;-67
2020/12/14 17:49:19;;;;;;;3.13;1.85;;;;;;;7.71;61.31;100366.56;7995896;28;20037;-69
2020/12/14 17:53:09;;;;;;;3.13;2.08;;;;;;;7.69;61.13;100366.66;7997537;28;20035;-68
2020/12/14 17:57:00;;;;;;;4.32;2.08;;;;;;;7.71;60.86;100362.16;7995656;28;20040;-68
2020/12/14 18:00:51;;;;;;;2.47;1.75;;;;;;;7.70;61.26;100370.94;7999501;28;20580;-69
2020/12/14 18:04:41;;;;;;;5.70;2.00;;;;;;;7.71;61.27;100375.22;7997833;28;20489;-68
2020/12/14 18:08:33;;;;;;;3.95;2.10;;;;;;;7.72;61.15;100383.91;7996978;28;20025;-68
2020/12/14 18:12:23;;;;;;;2.30;1.58;;;;;;;7.74;61.10;100392.50;7996468;28;20051;-68